createdAt,value
2023-05-13T00:01:17.383Z,2.60
2023-05-13T00:04:22.241Z,2.77
2023-05-13T00:07:27.455Z,2.60
2023-05-13T00:10:31.276Z,2.73
2023-05-13T00:13:35.083Z,2.57
2023-05-13T00:16:39.533Z,2.50
2023-05-13T00:19:43.397Z,2.40
2023-05-13T00:22:48.806Z,2.83
2023-05-13T00:25:52.615Z,2.90
2023-05-13T00:28:56.518Z,2.77
2023-05-13T00:32:00.461Z,2.80
2023-05-13T00:35:04.422Z,2.50
2023-05-13T00:38:09.931Z,2.60
2023-05-13T00:41:14.252Z,2.60
2023-05-13T00:44:18.031Z,2.37
2023-05-13T00:47:23.276Z,2.80
2023-05-13T00:50:27.587Z,2.67
2023-05-13T00:53:34.766Z,2.47
2023-05-13T00:56:39.575Z,2.67
2023-05-13T00:59:43.329Z,2.40
2023-05-13T01:02:54.583Z,2.90
2023-05-13T01:06:06.161Z,3.17
2023-05-13T01:09:20.061Z,3.47
2023-05-13T01:12:31.229Z,2.50
2023-05-13T01:15:40.576Z,2.87
2023-05-13T01:18:47.736Z,2.80
2023-05-13T01:21:55.457Z,2.47
2023-05-13T01:25:27.952Z,2.73
2023-05-13T01:28:32.069Z,2.70
2023-05-13T01:31:40.233Z,2.87
2023-05-13T01:34:45.837Z,2.73
2023-05-13T01:37:52.953Z,3.20
2023-05-13T01:40:58.415Z,3.30
2023-05-13T01:44:02.339Z,3.30
2023-05-13T01:47:06.470Z,2.80
2023-05-13T01:50:11.202Z,2.67
2023-05-13T01:53:16.410Z,3.33
2023-05-13T01:56:20.472Z,2.60
2023-05-13T01:59:25.501Z,3.73
2023-05-13T02:02:29.190Z,3.10
2023-05-13T02:05:33.498Z,3.03
2023-05-13T02:08:43.363Z,2.80
2023-05-13T02:11:47.697Z,3.37
2023-05-13T02:14:52.555Z,3.07
2023-05-13T02:17:56.422Z,3.03
2023-05-13T02:21:00.256Z,3.40
2023-05-13T02:24:06.811Z,3.77
2023-05-13T02:27:13.011Z,2.87
2023-05-13T02:30:17.043Z,2.63
2023-05-13T02:33:21.587Z,4.00
2023-05-13T02:36:25.575Z,3.60
2023-05-13T02:39:31.038Z,3.70
2023-05-13T02:42:35.979Z,3.23
2023-05-13T02:45:41.992Z,3.40
2023-05-13T02:48:47.600Z,3.20
2023-05-13T02:51:51.516Z,3.10
2023-05-13T02:55:02.262Z,3.40
2023-05-13T02:58:06.142Z,2.70
2023-05-13T03:01:10.625Z,2.93
2023-05-13T03:04:14.651Z,3.50
2023-05-13T03:07:18.599Z,3.10
2023-05-13T03:10:24.076Z,2.60
2023-05-13T03:13:27.994Z,2.47
2023-05-13T03:16:33.172Z,2.67
2023-05-13T03:19:38.662Z,2.87
2023-05-13T03:22:42.639Z,3.10
2023-05-13T03:25:50.028Z,2.80
2023-05-13T03:28:54.069Z,3.17
2023-05-13T03:31:58.496Z,3.50
2023-05-13T03:35:03.063Z,3.43
2023-05-13T03:38:08.329Z,3.87
2023-05-13T03:41:17.967Z,3.50
2023-05-13T03:44:24.076Z,4.63
2023-05-13T03:47:28.274Z,3.87
2023-05-13T03:50:37.180Z,4.70
2023-05-13T03:53:41.376Z,4.20
2023-05-13T03:56:46.770Z,4.10
2023-05-13T03:59:50.562Z,5.67
2023-05-13T04:02:55.985Z,5.63
2023-05-13T04:05:59.915Z,8.27
2023-05-13T04:09:04.944Z,8.17
2023-05-13T04:12:10.158Z,7.43
2023-05-13T04:15:13.903Z,7.30
2023-05-13T04:18:17.748Z,7.30
2023-05-13T04:21:21.489Z,7.70
2023-05-13T04:24:25.806Z,6.43
2023-05-13T04:27:31.055Z,5.83
2023-05-13T04:30:49.613Z,5.60
2023-05-13T04:33:53.449Z,6.30
2023-05-13T04:36:57.262Z,7.07
2023-05-13T04:40:01.964Z,7.13
2023-05-13T04:43:07.467Z,7.73
2023-05-13T04:46:18.677Z,5.97
2023-05-13T04:49:22.649Z,5.57
2023-05-13T04:52:26.614Z,6.10
2023-05-13T04:55:30.425Z,4.40
2023-05-13T04:58:35.853Z,5.57
2023-05-13T05:01:39.873Z,4.80
2023-05-13T05:04:43.875Z,5.20
2023-05-13T05:07:50.819Z,4.90
2023-05-13T05:10:56.500Z,4.43
2023-05-13T05:14:01.995Z,4.50
2023-05-13T05:17:06.811Z,4.77
2023-05-13T05:20:12.005Z,4.33
2023-05-13T05:23:16.277Z,4.37
2023-05-13T05:26:21.039Z,5.27
2023-05-13T05:29:26.778Z,5.53
2023-05-13T05:32:31.521Z,4.03
2023-05-13T05:35:37.442Z,3.90
2023-05-13T05:38:44.089Z,5.70
2023-05-13T05:41:48.607Z,14.77
2023-05-13T05:44:54.294Z,8.97
2023-05-13T05:47:58.459Z,5.97
2023-05-13T05:51:03.562Z,6.87
2023-05-13T05:54:10.549Z,46.83
2023-05-13T05:57:15.599Z,42.67
2023-05-13T06:00:22.051Z,24.17
2023-05-13T06:03:26.261Z,8.07
2023-05-13T06:06:30.515Z,11.33
2023-05-13T06:09:34.503Z,10.90
2023-05-13T06:12:38.589Z,6.17
2023-05-13T06:15:43.955Z,11.60
2023-05-13T06:18:48.974Z,4.87
2023-05-13T06:21:53.013Z,4.57
2023-05-13T06:24:56.985Z,4.30
2023-05-13T06:28:02.863Z,6.33
2023-05-13T06:31:08.603Z,7.07
2023-05-13T06:34:16.923Z,4.27
2023-05-13T06:37:21.694Z,12.77
2023-05-13T06:40:25.836Z,13.83
2023-05-13T06:43:30.555Z,7.27
2023-05-13T06:46:37.782Z,7.10
2023-05-13T06:49:41.672Z,7.03
2023-05-13T06:52:45.872Z,6.00
2023-05-13T06:55:49.851Z,5.83
2023-05-13T06:58:54.095Z,5.73
2023-05-13T07:01:59.657Z,5.63
2023-05-13T07:05:03.592Z,6.57
2023-05-13T07:08:08.880Z,5.97
2023-05-13T07:11:12.830Z,5.83
2023-05-13T07:14:17.115Z,13.00
2023-05-13T07:17:22.790Z,7.20
2023-05-13T07:20:27.458Z,6.83
2023-05-13T07:23:31.852Z,10.63
2023-05-13T07:26:35.786Z,10.37
2023-05-13T07:29:39.650Z,6.83
2023-05-13T07:32:45.108Z,7.90
2023-05-13T07:35:49.157Z,6.33
2023-05-13T07:38:53.880Z,7.27
2023-05-13T07:41:57.938Z,5.80
2023-05-13T07:45:01.891Z,6.40
2023-05-13T07:48:07.723Z,4.67
2023-05-13T07:51:11.733Z,5.90
2023-05-13T07:54:15.734Z,5.03
2023-05-13T07:57:19.703Z,5.50
2023-05-13T08:00:23.733Z,6.03
2023-05-13T08:03:29.284Z,4.23
2023-05-13T08:06:33.334Z,5.60
2023-05-13T08:09:37.235Z,4.00
2023-05-13T08:12:41.596Z,4.23
2023-05-13T08:15:46.184Z,4.33
2023-05-13T08:18:55.523Z,4.13
2023-05-13T08:21:59.523Z,5.93
2023-05-13T08:25:04.902Z,4.20
2023-05-13T08:28:08.846Z,4.30
2023-05-13T08:31:13.931Z,4.23
2023-05-13T08:34:19.330Z,3.67
2023-05-13T08:37:23.326Z,3.87
2023-05-13T08:40:27.184Z,3.40
2023-05-13T08:43:32.756Z,4.13
2023-05-13T08:46:39.553Z,3.23
2023-05-13T08:49:45.330Z,3.77
2023-05-13T08:52:49.370Z,3.63
2023-05-13T08:55:53.748Z,2.67
2023-05-13T08:58:58.066Z,3.63
2023-05-13T09:02:04.110Z,2.57
2023-05-13T09:05:11.235Z,2.83
2023-05-13T09:08:15.599Z,2.72
2023-05-13T09:11:19.502Z,2.92
2023-05-13T09:14:23.525Z,2.08
2023-05-13T09:17:27.571Z,3.05
2023-05-13T09:20:33.978Z,2.70
2023-05-13T09:23:39.744Z,2.00
2023-05-13T09:26:44.065Z,2.28
2023-05-13T09:29:50.017Z,2.00
2023-05-13T09:33:11.621Z,2.47
2023-05-13T09:36:18.764Z,4.22
2023-05-13T09:39:22.670Z,2.10
2023-05-13T09:42:26.665Z,2.58
2023-05-13T09:45:30.493Z,2.33
2023-05-13T09:48:38.331Z,2.20
2023-05-13T09:51:45.518Z,2.42
2023-05-13T09:54:49.526Z,2.50
2023-05-13T09:57:55.300Z,2.50
2023-05-13T10:01:00.036Z,3.40
2023-05-13T10:04:06.491Z,8.35
2023-05-13T10:07:13.519Z,2.38
2023-05-13T10:10:17.534Z,3.08
2023-05-13T10:13:26.043Z,2.17
2023-05-13T10:16:30.858Z,2.45
2023-05-13T10:19:35.277Z,2.88
2023-05-13T10:22:41.774Z,2.50
2023-05-13T10:25:46.447Z,2.70
2023-05-13T10:28:50.774Z,2.35
2023-05-13T10:31:55.722Z,2.17
2023-05-13T10:35:06.912Z,2.60
2023-05-13T10:38:18.403Z,2.65
2023-05-13T10:41:41.031Z,2.38
2023-05-13T10:44:45.032Z,2.25
2023-05-13T10:47:52.153Z,2.22
2023-05-13T10:50:57.205Z,2.30
2023-05-13T10:54:02.609Z,2.10
2023-05-13T10:57:06.890Z,3.13
2023-05-13T11:00:19.365Z,3.60
2023-05-13T11:03:31.474Z,2.53
2023-05-13T11:06:36.997Z,2.55
2023-05-13T11:09:42.358Z,2.92
2023-05-13T11:13:10.060Z,2.50
2023-05-13T11:16:15.594Z,2.17
2023-05-13T11:19:25.047Z,2.22
2023-05-13T11:22:32.310Z,2.00
2023-05-13T11:25:38.364Z,2.10
2023-05-13T11:29:00.048Z,1.90
2023-05-13T11:32:05.731Z,2.35
2023-05-13T11:35:10.142Z,2.33
2023-05-13T11:38:25.427Z,2.10
2023-05-13T11:41:33.609Z,1.92
2023-05-13T11:44:38.546Z,2.08
2023-05-13T11:47:42.408Z,2.33
2023-05-13T11:50:46.364Z,2.10
2023-05-13T11:53:50.342Z,2.05
2023-05-13T11:56:56.161Z,2.00
2023-05-13T12:00:01.543Z,2.20
2023-05-13T12:03:12.239Z,2.08
2023-05-13T12:06:17.238Z,2.22
2023-05-13T12:09:24.197Z,2.17
2023-05-13T12:12:31.346Z,2.20
2023-05-13T12:15:35.413Z,2.00
2023-05-13T12:18:39.556Z,1.95
2023-05-13T12:21:43.431Z,2.40
2023-05-13T12:24:47.308Z,1.88
2023-05-13T12:27:55.169Z,2.03
2023-05-13T12:31:00.850Z,2.17
2023-05-13T12:34:06.667Z,1.83
2023-05-13T12:37:14.319Z,1.75
2023-05-13T12:40:18.405Z,2.00
2023-05-13T12:43:24.527Z,2.03
2023-05-13T12:46:29.019Z,1.90
2023-05-13T12:49:32.974Z,2.08
2023-05-13T12:52:36.954Z,2.15
2023-05-13T12:55:40.959Z,1.90
2023-05-13T12:58:46.365Z,2.33
2023-05-13T13:01:51.492Z,2.65
2023-05-13T13:04:55.308Z,1.92
2023-05-13T13:07:59.213Z,2.60
2023-05-13T13:11:03.080Z,2.13
2023-05-13T13:14:08.709Z,1.95
2023-05-13T13:17:12.738Z,2.00
2023-05-13T13:20:16.620Z,2.40
2023-05-13T13:23:20.669Z,2.13
2023-05-13T13:26:24.572Z,2.22
2023-05-13T13:29:29.990Z,2.40
2023-05-13T13:32:35.584Z,1.90
2023-05-13T13:35:39.610Z,2.17
2023-05-13T13:38:43.452Z,2.40
2023-05-13T13:41:47.540Z,2.03
2023-05-13T13:44:52.936Z,2.47
2023-05-13T13:47:56.833Z,2.30
2023-05-13T13:51:00.879Z,2.40
2023-05-13T13:54:08.396Z,2.67
2023-05-13T13:57:12.355Z,2.28
2023-05-13T14:00:18.461Z,2.65
2023-05-13T14:03:22.478Z,3.45
2023-05-13T14:06:26.599Z,4.38
2023-05-13T14:09:31.746Z,2.97
2023-05-13T14:12:36.088Z,3.05
2023-05-13T14:15:41.592Z,3.08
2023-05-13T14:18:45.560Z,2.80
2023-05-13T14:21:49.626Z,2.35
2023-05-13T14:24:53.960Z,3.63
2023-05-13T14:27:58.084Z,2.30
2023-05-13T14:31:03.487Z,2.20
2023-05-13T14:34:08.154Z,2.30
2023-05-13T14:37:12.130Z,2.05
2023-05-13T14:40:16.081Z,2.40
2023-05-13T14:43:19.998Z,1.90
2023-05-13T14:46:25.418Z,2.55
2023-05-13T14:49:29.318Z,2.30
2023-05-13T14:52:33.186Z,2.70
2023-05-13T14:55:37.145Z,1.90
2023-05-13T14:58:41.003Z,2.63
2023-05-13T15:01:46.591Z,2.22
2023-05-13T15:04:50.537Z,2.25
2023-05-13T15:07:54.455Z,2.53
2023-05-13T15:10:58.379Z,2.67
2023-05-13T15:14:03.468Z,2.88
2023-05-13T15:17:12.125Z,2.17
2023-05-13T15:20:16.149Z,2.65
2023-05-13T15:23:20.112Z,3.40
2023-05-13T15:26:23.908Z,2.47
2023-05-13T15:29:28.888Z,2.50
2023-05-13T15:32:34.636Z,2.60
2023-05-13T15:35:38.586Z,2.20
2023-05-13T15:38:42.456Z,2.45
2023-05-13T15:41:46.720Z,2.42
2023-05-13T15:44:50.715Z,2.50
2023-05-13T15:47:56.196Z,2.25
2023-05-13T15:51:00.237Z,2.53
2023-05-13T15:54:04.171Z,2.28
2023-05-13T15:57:09.338Z,2.70
2023-05-13T16:00:14.687Z,2.92
2023-05-13T16:03:20.267Z,4.45
2023-05-13T16:06:24.324Z,5.30
2023-05-13T16:09:28.235Z,3.00
2023-05-13T16:12:32.782Z,2.33
2023-05-13T16:15:36.669Z,3.03
2023-05-13T16:18:43.278Z,3.35
2023-05-13T16:21:47.469Z,2.55
2023-05-13T16:24:51.436Z,2.50
2023-05-13T16:27:56.796Z,3.20
2023-05-13T16:31:00.959Z,2.90
2023-05-13T16:34:06.418Z,3.30
2023-05-13T16:37:10.279Z,3.03
2023-05-13T16:40:15.290Z,3.30
2023-05-13T16:43:19.168Z,3.05
2023-05-13T16:46:23.142Z,2.90
2023-05-13T16:49:28.596Z,3.22
2023-05-13T16:52:34.353Z,3.15
2023-05-13T16:55:38.313Z,3.10
2023-05-13T16:58:42.200Z,3.10
2023-05-13T17:01:46.174Z,3.03
2023-05-13T17:04:51.745Z,2.85
2023-05-13T17:07:55.720Z,2.88
2023-05-13T17:10:59.591Z,3.30
2023-05-13T17:14:04.037Z,6.65
2023-05-13T17:17:07.954Z,3.88
2023-05-13T17:20:14.540Z,4.90
2023-05-13T17:23:18.464Z,3.90
2023-05-13T17:26:22.658Z,3.55
2023-05-13T17:29:26.678Z,3.90
2023-05-13T17:32:32.022Z,3.17
2023-05-13T17:35:37.436Z,3.60
2023-05-13T17:38:41.322Z,3.87
2023-05-13T17:41:45.311Z,3.93
2023-05-13T17:44:49.243Z,3.80
2023-05-13T17:47:53.303Z,3.80
2023-05-13T17:50:59.297Z,3.83
2023-05-13T17:54:03.285Z,3.43
2023-05-13T17:57:07.479Z,3.50
2023-05-13T18:00:12.500Z,3.67
2023-05-13T18:03:16.616Z,3.60
2023-05-13T18:06:22.136Z,8.17
2023-05-13T18:09:26.056Z,3.97
2023-05-13T18:12:31.066Z,4.30
2023-05-13T18:15:35.160Z,4.07
2023-05-13T18:18:39.049Z,4.10
2023-05-13T18:21:45.839Z,4.23
2023-05-13T18:24:49.792Z,4.30
2023-05-13T18:27:53.847Z,4.27
2023-05-13T18:30:57.820Z,4.40
2023-05-13T18:34:01.826Z,5.10
2023-05-13T18:37:08.027Z,5.70
2023-05-13T18:40:12.753Z,5.63
2023-05-13T18:43:16.697Z,4.87
2023-05-13T18:46:21.385Z,5.27
2023-05-13T18:49:28.490Z,5.10
2023-05-13T18:52:33.932Z,5.90
2023-05-13T18:55:38.166Z,6.30
2023-05-13T18:58:42.085Z,5.47
2023-05-13T19:01:46.086Z,5.10
2023-05-13T19:04:49.938Z,5.70
2023-05-13T19:07:55.496Z,5.27
2023-05-13T19:10:59.378Z,5.90
2023-05-13T19:14:03.333Z,6.70
2023-05-13T19:17:07.566Z,7.37
2023-05-13T19:20:12.730Z,9.50
2023-05-13T19:23:18.213Z,7.17
2023-05-13T19:26:22.627Z,8.03
2023-05-13T19:29:27.126Z,7.47
2023-05-13T19:32:31.262Z,6.80
2023-05-13T19:35:35.508Z,5.90
2023-05-13T19:38:40.982Z,6.60
2023-05-13T19:41:44.902Z,6.43
2023-05-13T19:44:48.965Z,6.07
2023-05-13T19:47:52.983Z,7.73
2023-05-13T19:50:58.259Z,6.80
2023-05-13T19:54:03.622Z,7.77
2023-05-13T19:57:08.033Z,7.70
2023-05-13T20:00:13.913Z,6.80
2023-05-13T20:03:18.103Z,6.50
2023-05-13T20:06:22.156Z,6.20
2023-05-13T20:09:27.589Z,7.47
2023-05-13T20:12:31.512Z,6.50
2023-05-13T20:15:35.530Z,7.83
2023-05-13T20:18:39.721Z,5.60
2023-05-13T20:21:43.674Z,5.80
2023-05-13T20:24:49.568Z,5.53
2023-05-13T20:27:53.454Z,5.90
2023-05-13T20:30:57.467Z,4.27
2023-05-13T20:34:01.372Z,4.00
2023-05-13T20:37:05.636Z,3.57
2023-05-13T20:40:11.887Z,3.03
2023-05-13T20:43:17.055Z,2.83
2023-05-13T20:46:21.082Z,3.13
2023-05-13T20:49:24.973Z,2.97
2023-05-13T20:52:28.875Z,3.30
2023-05-13T20:55:34.398Z,3.13
2023-05-13T20:58:38.322Z,2.77
2023-05-13T21:01:47.660Z,2.90
2023-05-13T21:04:51.716Z,2.83
2023-05-13T21:07:55.846Z,3.00
2023-05-13T21:11:01.243Z,2.90
2023-05-13T21:14:05.298Z,3.00
2023-05-13T21:17:09.263Z,3.27
2023-05-13T21:20:14.342Z,3.10
2023-05-13T21:23:20.369Z,3.20
2023-05-13T21:26:26.331Z,2.83
2023-05-13T21:29:30.929Z,2.60
2023-05-13T21:32:35.180Z,3.00
2023-05-13T21:35:39.130Z,3.60
2023-05-13T21:38:43.041Z,3.10
2023-05-13T21:41:48.442Z,2.90
2023-05-13T21:44:52.335Z,3.10
2023-05-13T21:47:56.449Z,5.50
2023-05-13T21:51:00.422Z,2.97
2023-05-13T21:54:05.280Z,3.10
2023-05-13T21:57:11.495Z,3.33
2023-05-13T22:00:19.069Z,3.43
2023-05-13T22:03:22.899Z,3.07
2023-05-13T22:06:26.898Z,3.27
2023-05-13T22:09:30.777Z,3.47
2023-05-13T22:12:36.187Z,3.47
2023-05-13T22:15:40.056Z,3.60
2023-05-13T22:18:44.433Z,3.37
2023-05-13T22:21:48.596Z,3.17
2023-05-13T22:24:52.547Z,3.23
2023-05-13T22:27:57.903Z,3.37
2023-05-13T22:31:01.963Z,3.53
2023-05-13T22:34:05.993Z,4.13
2023-05-13T22:37:09.885Z,3.27
2023-05-13T22:40:14.794Z,3.40
2023-05-13T22:43:20.240Z,3.53
2023-05-13T22:46:24.161Z,2.97
2023-05-13T22:49:28.095Z,2.70
2023-05-13T22:52:32.092Z,3.33
2023-05-13T22:55:35.994Z,3.00
2023-05-13T22:58:41.515Z,2.97
2023-05-13T23:01:45.569Z,3.27
2023-05-13T23:04:49.461Z,3.23
2023-05-13T23:07:53.352Z,2.90
2023-05-13T23:10:57.709Z,3.10
2023-05-13T23:14:03.103Z,3.20
2023-05-13T23:17:07.072Z,3.13
2023-05-13T23:20:12.519Z,3.50
2023-05-13T23:23:16.316Z,2.70
2023-05-13T23:26:20.264Z,3.40
2023-05-13T23:29:27.895Z,3.03
2023-05-13T23:32:31.830Z,2.93
2023-05-13T23:35:36.101Z,3.20
2023-05-13T23:38:39.965Z,2.73
2023-05-13T23:41:43.897Z,2.80
2023-05-13T23:44:49.293Z,3.30
2023-05-13T23:47:53.250Z,2.60
2023-05-13T23:50:57.235Z,3.27
2023-05-13T23:54:01.353Z,2.67
2023-05-13T23:57:05.388Z,3.30
